• Join FlightAware (Why Join?)
  • Login
  • US Flag 
02:52AM EDT


 

Airport Tracker/Info


-or-


 

Live Flight TrackerFlight Track Log ✈ N6792M ✈ 02-Oct-2013 ✈ 3D2 - KGRB

Flight Track Log - Related Links

Times and Time Zones

All times are in EDT time to prevent confusion due to time zone crossing. See the N6792M flight status page for this flight to view local times or setup timezone preferences in your user account.

Time Position Orientation Groundspeed Altitude Reporting Facility
EDT Latitude Longitude Course Direction KTS MPH feet Rate Location/Type
07:57AM 45.0642 -87.2864 224° Southwest 98 113 3,900  Level Minneapolis Center
07:58AM 45.0458 -87.3158 229° Southwest 99 114 4,100  Climbing Minneapolis Center
07:59AM 45.0164 -87.3600 227° Southwest 119 137 3,900 -60 Descending Minneapolis Center
08:00AM 44.9872 -87.4003 224° Southwest 134 154 4,000  Climbing Minneapolis Center
08:01AM 45.0119 -87.3692 225° Southwest  Level Estimated
08:01AM 44.9633 -87.4372 228° Southwest 133 153 3,900  Level Minneapolis Center
08:02AM 44.9907 -87.3985 224° Southwest  Level FlightAware Approximate
08:02AM 44.9364 -87.4778 227° Southwest 131 151 3,900  Level Minneapolis Center
08:03AM 44.9139 -87.5114 227° Southwest 130 150 3,900  Level Minneapolis Center
08:04AM 44.8864 -87.5436 220° Southwest 128 147 4,000  Climbing Minneapolis Center
08:05AM 44.8597 -87.5803 224° Southwest 131 151 4,000  Level Minneapolis Center
08:06AM 44.8356 -87.6189 229° Southwest 132 152 4,000  Level Minneapolis Center
08:07AM 44.8111 -87.6547 226° Southwest 131 151 4,000  Level Minneapolis Center
08:08AM 44.7878 -87.6903 227° Southwest 129 148 4,000  Level Minneapolis Center
08:09AM 44.7586 -87.7356 228° Southwest 130 150 4,000 -60 Level Minneapolis Center
08:10AM 44.7328 -87.7736 226° Southwest 133 153 3,900 -60 Descending Minneapolis Center
08:11AM 44.7061 -87.8103 224° Southwest 135 155 3,900  Level Minneapolis Center
08:12AM 44.6811 -87.8469 226° Southwest 133 153 3,900  Level Minneapolis Center
08:13AM 44.6567 -87.8839 227° Southwest 131 151 3,900 -60 Level Minneapolis Center
08:14AM 44.6289 -87.9194 222° Southwest 133 153 3,800 -300 Descending Minneapolis Center
08:15AM 44.5986 -87.9508 216° Southwest 134 154 3,400 -420 Descending Minneapolis Center
08:16AM 44.5694 -87.9925 226° Southwest 143 165 3,000 -540 Descending Minneapolis Center
08:17AM 44.5325 -88.0294 215° Southwest 140 161 2,400 -540 Descending Minneapolis Center
08:18AM 44.5094 -88.0586 222° Southwest 137 158 1,900 -540 Descending Minneapolis Center
08:20AM 44.4841 -88.1152 235° Southwest  Level FlightAware Approximate
08:27AM 44.4833 -88.1167 235° Southwest  Level FlightAware Approximate